sensor_id;sensor_type;location;lat;lon;timestamp;P1;durP1;ratioP1;P2;durP2;ratioP2
26359;SDS011;14063;41.426;13.854;2022-08-23T00:00:39;0.00;;;0.00;;
26359;SDS011;14063;41.426;13.854;2022-08-23T00:03:05;0.00;;;0.00;;
26359;SDS011;14063;41.426;13.854;2022-08-23T00:05:32;0.00;;;0.00;;
26359;SDS011;14063;41.426;13.854;2022-08-23T00:07:59;0.00;;;0.00;;
26359;SDS011;14063;41.426;13.854;2022-08-23T00:10:25;0.00;;;0.00;;
26359;SDS011;14063;41.426;13.854;2022-08-23T00:12:51;0.00;;;0.00;;
26359;SDS011;14063;41.426;13.854;2022-08-23T00:15:18;0.00;;;0.00;;
26359;SDS011;14063;41.426;13.854;2022-08-23T00:17:45;0.00;;;0.00;;
26359;SDS011;14063;41.426;13.854;2022-08-23T00:20:13;0.00;;;0.00;;
26359;SDS011;14063;41.426;13.854;2022-08-23T00:22:41;0.00;;;0.00;;
26359;SDS011;14063;41.426;13.854;2022-08-23T00:25:09;0.00;;;0.00;;
26359;SDS011;14063;41.426;13.854;2022-08-23T00:27:35;0.00;;;0.00;;
26359;SDS011;14063;41.426;13.854;2022-08-23T00:30:03;0.00;;;0.00;;
26359;SDS011;14063;41.426;13.854;2022-08-23T00:32:31;0.00;;;0.00;;
26359;SDS011;14063;41.426;13.854;2022-08-23T00:34:58;0.00;;;0.00;;
26359;SDS011;14063;41.426;13.854;2022-08-23T00:37:25;0.00;;;0.00;;
26359;SDS011;14063;41.426;13.854;2022-08-23T00:39:51;0.00;;;0.00;;
26359;SDS011;14063;41.426;13.854;2022-08-23T00:42:36;0.00;;;0.00;;
26359;SDS011;14063;41.426;13.854;2022-08-23T00:45:23;0.00;;;0.00;;
26359;SDS011;14063;41.426;13.854;2022-08-23T00:48:10;0.05;;;0.05;;
26359;SDS011;14063;41.426;13.854;2022-08-23T00:50:42;0.00;;;0.00;;
26359;SDS011;14063;41.426;13.854;2022-08-23T00:53:14;0.00;;;0.00;;
26359;SDS011;14063;41.426;13.854;2022-08-23T00:55:43;0.00;;;0.00;;
26359;SDS011;14063;41.426;13.854;2022-08-23T00:58:10;0.00;;;0.00;;
26359;SDS011;14063;41.426;13.854;2022-08-23T01:00:37;0.00;;;0.00;;
26359;SDS011;14063;41.426;13.854;2022-08-23T01:03:06;0.00;;;0.00;;
26359;SDS011;14063;41.426;13.854;2022-08-23T01:05:35;0.00;;;0.00;;
26359;SDS011;14063;41.426;13.854;2022-08-23T01:08:07;0.00;;;0.00;;
26359;SDS011;14063;41.426;13.854;2022-08-23T01:10:38;0.00;;;0.00;;
26359;SDS011;14063;41.426;13.854;2022-08-23T01:13:24;0.00;;;0.00;;
26359;SDS011;14063;41.426;13.854;2022-08-23T01:15:53;0.00;;;0.00;;
26359;SDS011;14063;41.426;13.854;2022-08-23T01:18:21;0.00;;;0.00;;
26359;SDS011;14063;41.426;13.854;2022-08-23T01:23:26;0.00;;;0.00;;
26359;SDS011;14063;41.426;13.854;2022-08-23T01:25:53;0.00;;;0.00;;
26359;SDS011;14063;41.426;13.854;2022-08-23T01:28:20;0.00;;;0.00;;
26359;SDS011;14063;41.426;13.854;2022-08-23T01:30:47;0.00;;;0.00;;
26359;SDS011;14063;41.426;13.854;2022-08-23T01:33:14;0.00;;;0.00;;
26359;SDS011;14063;41.426;13.854;2022-08-23T01:35:42;0.00;;;0.00;;
26359;SDS011;14063;41.426;13.854;2022-08-23T01:38:10;0.00;;;0.00;;
26359;SDS011;14063;41.426;13.854;2022-08-23T01:40:37;0.00;;;0.00;;
26359;SDS011;14063;41.426;13.854;2022-08-23T01:43:03;0.00;;;0.00;;
26359;SDS011;14063;41.426;13.854;2022-08-23T01:45:30;0.00;;;0.00;;
26359;SDS011;14063;41.426;13.854;2022-08-23T01:47:58;0.00;;;0.00;;
26359;SDS011;14063;41.426;13.854;2022-08-23T01:50:25;0.00;;;0.00;;
26359;SDS011;14063;41.426;13.854;2022-08-23T01:52:51;0.00;;;0.00;;
26359;SDS011;14063;41.426;13.854;2022-08-23T01:55:18;0.00;;;0.00;;
26359;SDS011;14063;41.426;13.854;2022-08-23T01:57:46;0.00;;;0.00;;
26359;SDS011;14063;41.426;13.854;2022-08-23T02:00:14;0.00;;;0.00;;
26359;SDS011;14063;41.426;13.854;2022-08-23T02:02:41;0.00;;;0.00;;
26359;SDS011;14063;41.426;13.854;2022-08-23T02:05:07;0.00;;;0.00;;
26359;SDS011;14063;41.426;13.854;2022-08-23T02:07:34;0.00;;;0.00;;
26359;SDS011;14063;41.426;13.854;2022-08-23T02:10:00;0.00;;;0.00;;
26359;SDS011;14063;41.426;13.854;2022-08-23T02:12:26;0.00;;;0.00;;
26359;SDS011;14063;41.426;13.854;2022-08-23T02:14:53;0.00;;;0.00;;
26359;SDS011;14063;41.426;13.854;2022-08-23T02:17:19;0.00;;;0.00;;
26359;SDS011;14063;41.426;13.854;2022-08-23T02:19:46;0.00;;;0.00;;
26359;SDS011;14063;41.426;13.854;2022-08-23T02:22:12;0.00;;;0.00;;
26359;SDS011;14063;41.426;13.854;2022-08-23T02:24:42;0.00;;;0.00;;
26359;SDS011;14063;41.426;13.854;2022-08-23T02:27:09;0.00;;;0.00;;
26359;SDS011;14063;41.426;13.854;2022-08-23T02:29:36;0.00;;;0.00;;
26359;SDS011;14063;41.426;13.854;2022-08-23T02:32:03;0.00;;;0.00;;
26359;SDS011;14063;41.426;13.854;2022-08-23T02:34:29;0.00;;;0.00;;
26359;SDS011;14063;41.426;13.854;2022-08-23T02:36:56;0.00;;;0.00;;
26359;SDS011;14063;41.426;13.854;2022-08-23T02:39:23;0.00;;;0.00;;
26359;SDS011;14063;41.426;13.854;2022-08-23T02:41:49;0.00;;;0.00;;
26359;SDS011;14063;41.426;13.854;2022-08-23T02:44:16;0.00;;;0.00;;
26359;SDS011;14063;41.426;13.854;2022-08-23T02:46:44;0.00;;;0.00;;
26359;SDS011;14063;41.426;13.854;2022-08-23T02:49:12;0.00;;;0.00;;
26359;SDS011;14063;41.426;13.854;2022-08-23T02:51:39;0.00;;;0.00;;
26359;SDS011;14063;41.426;13.854;2022-08-23T02:54:05;0.00;;;0.00;;
26359;SDS011;14063;41.426;13.854;2022-08-23T02:56:32;0.00;;;0.00;;
26359;SDS011;14063;41.426;13.854;2022-08-23T02:58:58;0.00;;;0.00;;
26359;SDS011;14063;41.426;13.854;2022-08-23T03:01:26;0.00;;;0.00;;
26359;SDS011;14063;41.426;13.854;2022-08-23T03:03:53;0.00;;;0.00;;
26359;SDS011;14063;41.426;13.854;2022-08-23T03:06:20;0.00;;;0.00;;
26359;SDS011;14063;41.426;13.854;2022-08-23T03:08:46;0.00;;;0.00;;
26359;SDS011;14063;41.426;13.854;2022-08-23T03:11:14;0.00;;;0.00;;
26359;SDS011;14063;41.426;13.854;2022-08-23T03:13:41;0.00;;;0.00;;
26359;SDS011;14063;41.426;13.854;2022-08-23T03:16:08;0.00;;;0.00;;
26359;SDS011;14063;41.426;13.854;2022-08-23T03:18:35;0.00;;;0.00;;
26359;SDS011;14063;41.426;13.854;2022-08-23T03:21:01;0.00;;;0.00;;
26359;SDS011;14063;41.426;13.854;2022-08-23T03:23:28;0.00;;;0.00;;
26359;SDS011;14063;41.426;13.854;2022-08-23T03:25:58;0.00;;;0.00;;
26359;SDS011;14063;41.426;13.854;2022-08-23T03:28:26;0.00;;;0.00;;
26359;SDS011;14063;41.426;13.854;2022-08-23T03:30:52;0.00;;;0.00;;
26359;SDS011;14063;41.426;13.854;2022-08-23T03:33:20;0.00;;;0.00;;
26359;SDS011;14063;41.426;13.854;2022-08-23T03:35:46;0.00;;;0.00;;
26359;SDS011;14063;41.426;13.854;2022-08-23T03:38:13;0.00;;;0.00;;
26359;SDS011;14063;41.426;13.854;2022-08-23T03:40:40;0.00;;;0.00;;
26359;SDS011;14063;41.426;13.854;2022-08-23T03:43:07;0.00;;;0.00;;
26359;SDS011;14063;41.426;13.854;2022-08-23T03:45:33;0.00;;;0.00;;
26359;SDS011;14063;41.426;13.854;2022-08-23T03:48:00;0.00;;;0.00;;
26359;SDS011;14063;41.426;13.854;2022-08-23T03:50:26;0.00;;;0.00;;
26359;SDS011;14063;41.426;13.854;2022-08-23T03:52:52;0.00;;;0.00;;
26359;SDS011;14063;41.426;13.854;2022-08-23T03:55:19;0.00;;;0.00;;
26359;SDS011;14063;41.426;13.854;2022-08-23T03:57:45;0.00;;;0.00;;
26359;SDS011;14063;41.426;13.854;2022-08-23T04:00:13;0.00;;;0.00;;
26359;SDS011;14063;41.426;13.854;2022-08-23T04:02:40;0.00;;;0.00;;
26359;SDS011;14063;41.426;13.854;2022-08-23T04:05:06;0.00;;;0.00;;
26359;SDS011;14063;41.426;13.854;2022-08-23T04:07:35;0.00;;;0.00;;
26359;SDS011;14063;41.426;13.854;2022-08-23T04:10:03;0.00;;;0.00;;
26359;SDS011;14063;41.426;13.854;2022-08-23T04:12:29;0.00;;;0.00;;
26359;SDS011;14063;41.426;13.854;2022-08-23T04:14:55;0.00;;;0.00;;
26359;SDS011;14063;41.426;13.854;2022-08-23T04:17:22;0.00;;;0.00;;
26359;SDS011;14063;41.426;13.854;2022-08-23T04:19:48;0.00;;;0.00;;
26359;SDS011;14063;41.426;13.854;2022-08-23T04:22:15;0.00;;;0.00;;
26359;SDS011;14063;41.426;13.854;2022-08-23T04:24:42;0.00;;;0.00;;
26359;SDS011;14063;41.426;13.854;2022-08-23T04:27:08;0.00;;;0.00;;
26359;SDS011;14063;41.426;13.854;2022-08-23T04:29:35;0.00;;;0.00;;
26359;SDS011;14063;41.426;13.854;2022-08-23T04:32:04;0.00;;;0.00;;
26359;SDS011;14063;41.426;13.854;2022-08-23T04:34:30;0.00;;;0.00;;
26359;SDS011;14063;41.426;13.854;2022-08-23T04:36:58;0.00;;;0.00;;
26359;SDS011;14063;41.426;13.854;2022-08-23T04:39:24;0.00;;;0.00;;
26359;SDS011;14063;41.426;13.854;2022-08-23T04:41:51;0.00;;;0.00;;
26359;SDS011;14063;41.426;13.854;2022-08-23T04:44:35;0.00;;;0.00;;
26359;SDS011;14063;41.426;13.854;2022-08-23T04:47:02;0.00;;;0.00;;
26359;SDS011;14063;41.426;13.854;2022-08-23T04:49:28;0.00;;;0.00;;
26359;SDS011;14063;41.426;13.854;2022-08-23T04:51:54;0.00;;;0.00;;
26359;SDS011;14063;41.426;13.854;2022-08-23T04:54:21;0.00;;;0.00;;
26359;SDS011;14063;41.426;13.854;2022-08-23T04:56:47;0.00;;;0.00;;
26359;SDS011;14063;41.426;13.854;2022-08-23T04:59:13;0.00;;;0.00;;
26359;SDS011;14063;41.426;13.854;2022-08-23T05:01:40;0.00;;;0.00;;
26359;SDS011;14063;41.426;13.854;2022-08-23T05:04:06;0.00;;;0.00;;
26359;SDS011;14063;41.426;13.854;2022-08-23T05:06:33;0.00;;;0.00;;
26359;SDS011;14063;41.426;13.854;2022-08-23T05:09:00;0.00;;;0.00;;
26359;SDS011;14063;41.426;13.854;2022-08-23T05:11:26;0.00;;;0.00;;
26359;SDS011;14063;41.426;13.854;2022-08-23T05:13:53;0.00;;;0.00;;
26359;SDS011;14063;41.426;13.854;2022-08-23T05:16:20;0.00;;;0.00;;
26359;SDS011;14063;41.426;13.854;2022-08-23T05:18:47;0.00;;;0.00;;
26359;SDS011;14063;41.426;13.854;2022-08-23T05:21:19;0.00;;;0.00;;
26359;SDS011;14063;41.426;13.854;2022-08-23T05:23:46;0.00;;;0.00;;
26359;SDS011;14063;41.426;13.854;2022-08-23T05:26:13;0.00;;;0.00;;
26359;SDS011;14063;41.426;13.854;2022-08-23T05:28:40;0.00;;;0.00;;
26359;SDS011;14063;41.426;13.854;2022-08-23T05:31:12;0.00;;;0.00;;
26359;SDS011;14063;41.426;13.854;2022-08-23T05:33:39;0.00;;;0.00;;
26359;SDS011;14063;41.426;13.854;2022-08-23T05:36:06;0.00;;;0.00;;
26359;SDS011;14063;41.426;13.854;2022-08-23T05:38:33;0.00;;;0.00;;
26359;SDS011;14063;41.426;13.854;2022-08-23T05:40:59;0.00;;;0.00;;
26359;SDS011;14063;41.426;13.854;2022-08-23T05:43:26;0.00;;;0.00;;
26359;SDS011;14063;41.426;13.854;2022-08-23T05:45:59;0.00;;;0.00;;
26359;SDS011;14063;41.426;13.854;2022-08-23T05:48:26;0.00;;;0.00;;
26359;SDS011;14063;41.426;13.854;2022-08-23T05:50:52;0.00;;;0.00;;
26359;SDS011;14063;41.426;13.854;2022-08-23T05:53:19;0.00;;;0.00;;
26359;SDS011;14063;41.426;13.854;2022-08-23T05:55:45;0.10;;;0.10;;
26359;SDS011;14063;41.426;13.854;2022-08-23T05:58:12;0.00;;;0.00;;
26359;SDS011;14063;41.426;13.854;2022-08-23T06:00:38;0.00;;;0.00;;
26359;SDS011;14063;41.426;13.854;2022-08-23T06:03:04;0.00;;;0.00;;
26359;SDS011;14063;41.426;13.854;2022-08-23T06:05:31;0.05;;;0.05;;
26359;SDS011;14063;41.426;13.854;2022-08-23T06:07:57;0.10;;;0.10;;
26359;SDS011;14063;41.426;13.854;2022-08-23T06:10:24;0.10;;;0.10;;
26359;SDS011;14063;41.426;13.854;2022-08-23T06:12:50;0.08;;;0.08;;
26359;SDS011;14063;41.426;13.854;2022-08-23T06:15:17;0.00;;;0.00;;
26359;SDS011;14063;41.426;13.854;2022-08-23T06:17:43;0.10;;;0.10;;
26359;SDS011;14063;41.426;13.854;2022-08-23T06:20:09;0.10;;;0.10;;
26359;SDS011;14063;41.426;13.854;2022-08-23T06:22:36;0.10;;;0.10;;
26359;SDS011;14063;41.426;13.854;2022-08-23T06:25:02;0.08;;;0.08;;
26359;SDS011;14063;41.426;13.854;2022-08-23T06:27:28;0.10;;;0.10;;
26359;SDS011;14063;41.426;13.854;2022-08-23T06:29:54;0.10;;;0.10;;
26359;SDS011;14063;41.426;13.854;2022-08-23T06:32:21;0.10;;;0.10;;
26359;SDS011;14063;41.426;13.854;2022-08-23T06:34:47;0.10;;;0.10;;
26359;SDS011;14063;41.426;13.854;2022-08-23T06:37:13;0.10;;;0.10;;
26359;SDS011;14063;41.426;13.854;2022-08-23T06:39:40;0.10;;;0.10;;
26359;SDS011;14063;41.426;13.854;2022-08-23T06:42:07;0.10;;;0.10;;
26359;SDS011;14063;41.426;13.854;2022-08-23T06:44:35;0.10;;;0.10;;
26359;SDS011;14063;41.426;13.854;2022-08-23T06:47:02;0.10;;;0.10;;
26359;SDS011;14063;41.426;13.854;2022-08-23T06:49:29;0.10;;;0.10;;
26359;SDS011;14063;41.426;13.854;2022-08-23T06:51:56;0.10;;;0.10;;
26359;SDS011;14063;41.426;13.854;2022-08-23T06:54:25;0.10;;;0.10;;
26359;SDS011;14063;41.426;13.854;2022-08-23T06:56:52;0.10;;;0.10;;
26359;SDS011;14063;41.426;13.854;2022-08-23T06:59:19;0.10;;;0.10;;
26359;SDS011;14063;41.426;13.854;2022-08-23T07:04:19;0.10;;;0.10;;
26359;SDS011;14063;41.426;13.854;2022-08-23T07:06:45;0.10;;;0.10;;
26359;SDS011;14063;41.426;13.854;2022-08-23T07:09:12;0.10;;;0.10;;
26359;SDS011;14063;41.426;13.854;2022-08-23T07:11:39;0.10;;;0.10;;
26359;SDS011;14063;41.426;13.854;2022-08-23T07:14:07;0.10;;;0.10;;
26359;SDS011;14063;41.426;13.854;2022-08-23T07:16:36;0.10;;;0.10;;
26359;SDS011;14063;41.426;13.854;2022-08-23T07:19:02;0.10;;;0.10;;
26359;SDS011;14063;41.426;13.854;2022-08-23T07:21:29;0.10;;;0.10;;
26359;SDS011;14063;41.426;13.854;2022-08-23T07:23:55;0.10;;;0.10;;
26359;SDS011;14063;41.426;13.854;2022-08-23T07:26:22;0.10;;;0.10;;
26359;SDS011;14063;41.426;13.854;2022-08-23T07:28:48;0.10;;;0.10;;
26359;SDS011;14063;41.426;13.854;2022-08-23T07:31:16;0.10;;;0.10;;
26359;SDS011;14063;41.426;13.854;2022-08-23T07:33:44;0.10;;;0.10;;
26359;SDS011;14063;41.426;13.854;2022-08-23T07:36:14;0.10;;;0.10;;
26359;SDS011;14063;41.426;13.854;2022-08-23T07:38:41;0.13;;;0.13;;
26359;SDS011;14063;41.426;13.854;2022-08-23T07:41:08;0.20;;;0.20;;
26359;SDS011;14063;41.426;13.854;2022-08-23T07:43:34;0.10;;;0.10;;
26359;SDS011;14063;41.426;13.854;2022-08-23T07:46:01;0.10;;;0.10;;
26359;SDS011;14063;41.426;13.854;2022-08-23T07:48:27;0.10;;;0.10;;
26359;SDS011;14063;41.426;13.854;2022-08-23T07:51:01;0.20;;;0.20;;
26359;SDS011;14063;41.426;13.854;2022-08-23T07:53:29;0.10;;;0.10;;
26359;SDS011;14063;41.426;13.854;2022-08-23T07:55:55;0.10;;;0.10;;
26359;SDS011;14063;41.426;13.854;2022-08-23T07:58:23;0.10;;;0.10;;
26359;SDS011;14063;41.426;13.854;2022-08-23T08:00:52;0.10;;;0.10;;
26359;SDS011;14063;41.426;13.854;2022-08-23T08:03:19;0.20;;;0.20;;
26359;SDS011;14063;41.426;13.854;2022-08-23T08:05:45;0.10;;;0.10;;
26359;SDS011;14063;41.426;13.854;2022-08-23T08:08:12;0.10;;;0.10;;
26359;SDS011;14063;41.426;13.854;2022-08-23T08:10:39;0.10;;;0.10;;
26359;SDS011;14063;41.426;13.854;2022-08-23T08:13:06;0.20;;;0.20;;
26359;SDS011;14063;41.426;13.854;2022-08-23T08:15:33;0.13;;;0.13;;
26359;SDS011;14063;41.426;13.854;2022-08-23T08:18:00;0.20;;;0.20;;
26359;SDS011;14063;41.426;13.854;2022-08-23T08:20:27;0.20;;;0.20;;
26359;SDS011;14063;41.426;13.854;2022-08-23T08:22:55;0.10;;;0.10;;
26359;SDS011;14063;41.426;13.854;2022-08-23T08:25:21;0.20;;;0.20;;
26359;SDS011;14063;41.426;13.854;2022-08-23T08:27:47;0.20;;;0.20;;
26359;SDS011;14063;41.426;13.854;2022-08-23T08:30:14;0.10;;;0.10;;
26359;SDS011;14063;41.426;13.854;2022-08-23T08:32:40;0.20;;;0.20;;
26359;SDS011;14063;41.426;13.854;2022-08-23T08:35:07;0.17;;;0.17;;
26359;SDS011;14063;41.426;13.854;2022-08-23T08:37:34;0.20;;;0.20;;
26359;SDS011;14063;41.426;13.854;2022-08-23T08:40:03;0.15;;;0.15;;
26359;SDS011;14063;41.426;13.854;2022-08-23T08:52:26;0.10;;;0.10;;
26359;SDS011;14063;41.426;13.854;2022-08-23T08:57:46;0.10;;;0.10;;
26359;SDS011;14063;41.426;13.854;2022-08-23T09:00:15;0.10;;;0.10;;
26359;SDS011;14063;41.426;13.854;2022-08-23T09:02:42;0.20;;;0.20;;
26359;SDS011;14063;41.426;13.854;2022-08-23T09:05:20;0.20;;;0.20;;
26359;SDS011;14063;41.426;13.854;2022-08-23T09:18:15;0.20;;;0.20;;
26359;SDS011;14063;41.426;13.854;2022-08-23T09:20:42;0.20;;;0.20;;
26359;SDS011;14063;41.426;13.854;2022-08-23T09:25:38;0.20;;;0.20;;
26359;SDS011;14063;41.426;13.854;2022-08-23T09:28:05;0.22;;;0.22;;
26359;SDS011;14063;41.426;13.854;2022-08-23T09:33:22;0.20;;;0.20;;
26359;SDS011;14063;41.426;13.854;2022-08-23T09:36:03;0.20;;;0.20;;
26359;SDS011;14063;41.426;13.854;2022-08-23T09:38:30;0.20;;;0.20;;
26359;SDS011;14063;41.426;13.854;2022-08-23T09:40:57;0.20;;;0.20;;
26359;SDS011;14063;41.426;13.854;2022-08-23T09:43:25;0.20;;;0.20;;
26359;SDS011;14063;41.426;13.854;2022-08-23T09:45:53;0.20;;;0.20;;
26359;SDS011;14063;41.426;13.854;2022-08-23T09:51:27;0.20;;;0.20;;
26359;SDS011;14063;41.426;13.854;2022-08-23T09:53:51;0.20;;;0.20;;
26359;SDS011;14063;41.426;13.854;2022-08-23T09:56:22;0.20;;;0.20;;
26359;SDS011;14063;41.426;13.854;2022-08-23T09:58:50;0.20;;;0.20;;
26359;SDS011;14063;41.426;13.854;2022-08-23T10:01:19;0.20;;;0.20;;
26359;SDS011;14063;41.426;13.854;2022-08-23T10:03:47;0.30;;;0.30;;
26359;SDS011;14063;41.426;13.854;2022-08-23T10:06:31;0.25;;;0.25;;
26359;SDS011;14063;41.426;13.854;2022-08-23T10:09:02;0.20;;;0.20;;
26359;SDS011;14063;41.426;13.854;2022-08-23T10:11:34;0.20;;;0.20;;
26359;SDS011;14063;41.426;13.854;2022-08-23T10:14:01;0.20;;;0.20;;
26359;SDS011;14063;41.426;13.854;2022-08-23T10:19:13;0.20;;;0.20;;
26359;SDS011;14063;41.426;13.854;2022-08-23T10:22:00;0.30;;;0.30;;
26359;SDS011;14063;41.426;13.854;2022-08-23T10:24:32;0.30;;;0.30;;
26359;SDS011;14063;41.426;13.854;2022-08-23T10:27:03;0.20;;;0.20;;
26359;SDS011;14063;41.426;13.854;2022-08-23T10:29:55;0.20;;;0.20;;
26359;SDS011;14063;41.426;13.854;2022-08-23T10:37:50;0.10;;;0.10;;
26359;SDS011;14063;41.426;13.854;2022-08-23T10:43:06;0.10;;;0.10;;
26359;SDS011;14063;41.426;13.854;2022-08-23T10:45:38;0.10;;;0.10;;
26359;SDS011;14063;41.426;13.854;2022-08-23T10:48:28;0.10;;;0.10;;
26359;SDS011;14063;41.426;13.854;2022-08-23T10:53:23;0.10;;;0.10;;
26359;SDS011;14063;41.426;13.854;2022-08-23T10:55:55;0.10;;;0.10;;
26359;SDS011;14063;41.426;13.854;2022-08-23T10:58:33;0.10;;;0.10;;
26359;SDS011;14063;41.426;13.854;2022-08-23T11:01:00;0.10;;;0.10;;
26359;SDS011;14063;41.426;13.854;2022-08-23T11:08:39;0.10;;;0.10;;
26359;SDS011;14063;41.426;13.854;2022-08-23T11:13:55;0.10;;;0.10;;
26359;SDS011;14063;41.426;13.854;2022-08-23T11:16:29;0.10;;;0.10;;
26359;SDS011;14063;41.426;13.854;2022-08-23T11:18:56;0.10;;;0.10;;
26359;SDS011;14063;41.426;13.854;2022-08-23T11:31:55;0.10;;;0.10;;
26359;SDS011;14063;41.426;13.854;2022-08-23T11:42:31;0.10;;;0.10;;
26359;SDS011;14063;41.426;13.854;2022-08-23T11:45:28;0.10;;;0.10;;
26359;SDS011;14063;41.426;13.854;2022-08-23T11:50:36;0.10;;;0.10;;
26359;SDS011;14063;41.426;13.854;2022-08-23T11:55:56;0.10;;;0.10;;
26359;SDS011;14063;41.426;13.854;2022-08-23T12:00:55;0.00;;;0.00;;
26359;SDS011;14063;41.426;13.854;2022-08-23T12:08:48;0.10;;;0.10;;
26359;SDS011;14063;41.426;13.854;2022-08-23T12:11:16;0.10;;;0.10;;
26359;SDS011;14063;41.426;13.854;2022-08-23T12:16:25;0.10;;;0.10;;
26359;SDS011;14063;41.426;13.854;2022-08-23T12:18:53;0.10;;;0.10;;
26359;SDS011;14063;41.426;13.854;2022-08-23T12:23:58;0.10;;;0.10;;
26359;SDS011;14063;41.426;13.854;2022-08-23T12:26:38;0.10;;;0.10;;
26359;SDS011;14063;41.426;13.854;2022-08-23T12:37:19;0.00;;;0.00;;
26359;SDS011;14063;41.426;13.854;2022-08-23T12:39:52;0.10;;;0.10;;
26359;SDS011;14063;41.426;13.854;2022-08-23T12:42:27;0.00;;;0.00;;
26359;SDS011;14063;41.426;13.854;2022-08-23T12:44:59;0.00;;;0.00;;
26359;SDS011;14063;41.426;13.854;2022-08-23T12:47:26;0.00;;;0.00;;
26359;SDS011;14063;41.426;13.854;2022-08-23T12:49:57;0.00;;;0.00;;
26359;SDS011;14063;41.426;13.854;2022-08-23T12:52:25;0.00;;;0.00;;
26359;SDS011;14063;41.426;13.854;2022-08-23T12:54:52;0.10;;;0.10;;
26359;SDS011;14063;41.426;13.854;2022-08-23T12:57:32;0.10;;;0.10;;
26359;SDS011;14063;41.426;13.854;2022-08-23T13:00:07;0.00;;;0.00;;
26359;SDS011;14063;41.426;13.854;2022-08-23T13:02:37;0.10;;;0.10;;
26359;SDS011;14063;41.426;13.854;2022-08-23T13:05:07;0.00;;;0.00;;
26359;SDS011;14063;41.426;13.854;2022-08-23T13:07:35;0.00;;;0.00;;
26359;SDS011;14063;41.426;13.854;2022-08-23T13:10:02;0.10;;;0.10;;
26359;SDS011;14063;41.426;13.854;2022-08-23T13:12:29;0.00;;;0.00;;
26359;SDS011;14063;41.426;13.854;2022-08-23T13:14:55;0.08;;;0.08;;
26359;SDS011;14063;41.426;13.854;2022-08-23T13:19:53;0.10;;;0.10;;
26359;SDS011;14063;41.426;13.854;2022-08-23T13:22:24;0.10;;;0.10;;
26359;SDS011;14063;41.426;13.854;2022-08-23T13:27:36;0.00;;;0.00;;
26359;SDS011;14063;41.426;13.854;2022-08-23T13:32:49;0.05;;;0.05;;
26359;SDS011;14063;41.426;13.854;2022-08-23T13:35:35;0.00;;;0.00;;
26359;SDS011;14063;41.426;13.854;2022-08-23T13:46:20;0.10;;;0.10;;
26359;SDS011;14063;41.426;13.854;2022-08-23T13:48:48;0.05;;;0.05;;
26359;SDS011;14063;41.426;13.854;2022-08-23T13:51:17;0.00;;;0.00;;
26359;SDS011;14063;41.426;13.854;2022-08-23T13:53:43;0.00;;;0.00;;
26359;SDS011;14063;41.426;13.854;2022-08-23T13:56:10;0.00;;;0.00;;
26359;SDS011;14063;41.426;13.854;2022-08-23T13:58:36;0.03;;;0.03;;
26359;SDS011;14063;41.426;13.854;2022-08-23T14:01:02;0.10;;;0.10;;
26359;SDS011;14063;41.426;13.854;2022-08-23T14:03:30;0.10;;;0.10;;
26359;SDS011;14063;41.426;13.854;2022-08-23T14:05:56;0.00;;;0.00;;
26359;SDS011;14063;41.426;13.854;2022-08-23T14:08:23;0.08;;;0.08;;
26359;SDS011;14063;41.426;13.854;2022-08-23T14:10:49;0.00;;;0.00;;
26359;SDS011;14063;41.426;13.854;2022-08-23T14:13:17;0.10;;;0.10;;
26359;SDS011;14063;41.426;13.854;2022-08-23T14:15:45;0.10;;;0.10;;
26359;SDS011;14063;41.426;13.854;2022-08-23T14:18:12;0.08;;;0.08;;
26359;SDS011;14063;41.426;13.854;2022-08-23T14:20:38;0.10;;;0.10;;
26359;SDS011;14063;41.426;13.854;2022-08-23T14:23:05;0.10;;;0.10;;
26359;SDS011;14063;41.426;13.854;2022-08-23T14:25:32;0.10;;;0.10;;
26359;SDS011;14063;41.426;13.854;2022-08-23T14:27:58;0.00;;;0.00;;
26359;SDS011;14063;41.426;13.854;2022-08-23T14:30:29;0.10;;;0.10;;
26359;SDS011;14063;41.426;13.854;2022-08-23T14:32:58;0.00;;;0.00;;
26359;SDS011;14063;41.426;13.854;2022-08-23T14:35:26;0.05;;;0.05;;
26359;SDS011;14063;41.426;13.854;2022-08-23T14:37:52;0.03;;;0.03;;
26359;SDS011;14063;41.426;13.854;2022-08-23T14:40:19;0.00;;;0.00;;
26359;SDS011;14063;41.426;13.854;2022-08-23T14:42:46;0.00;;;0.00;;
26359;SDS011;14063;41.426;13.854;2022-08-23T14:45:13;0.00;;;0.00;;
26359;SDS011;14063;41.426;13.854;2022-08-23T14:47:39;0.00;;;0.00;;
26359;SDS011;14063;41.426;13.854;2022-08-23T14:50:06;0.10;;;0.10;;
26359;SDS011;14063;41.426;13.854;2022-08-23T14:52:35;0.00;;;0.00;;
26359;SDS011;14063;41.426;13.854;2022-08-23T14:55:01;0.10;;;0.10;;
26359;SDS011;14063;41.426;13.854;2022-08-23T14:57:27;0.03;;;0.03;;
26359;SDS011;14063;41.426;13.854;2022-08-23T14:59:54;0.10;;;0.10;;
26359;SDS011;14063;41.426;13.854;2022-08-23T15:02:21;0.10;;;0.10;;
26359;SDS011;14063;41.426;13.854;2022-08-23T15:04:48;0.00;;;0.00;;
26359;SDS011;14063;41.426;13.854;2022-08-23T15:07:15;0.00;;;0.00;;
26359;SDS011;14063;41.426;13.854;2022-08-23T15:09:41;0.00;;;0.00;;
26359;SDS011;14063;41.426;13.854;2022-08-23T15:12:08;0.00;;;0.00;;
26359;SDS011;14063;41.426;13.854;2022-08-23T15:14:34;0.00;;;0.00;;
26359;SDS011;14063;41.426;13.854;2022-08-23T15:17:00;0.00;;;0.00;;
26359;SDS011;14063;41.426;13.854;2022-08-23T15:19:27;0.00;;;0.00;;
26359;SDS011;14063;41.426;13.854;2022-08-23T15:21:54;0.00;;;0.00;;
26359;SDS011;14063;41.426;13.854;2022-08-23T15:24:20;0.00;;;0.00;;
26359;SDS011;14063;41.426;13.854;2022-08-23T15:26:46;0.10;;;0.10;;
26359;SDS011;14063;41.426;13.854;2022-08-23T15:29:13;0.00;;;0.00;;
26359;SDS011;14063;41.426;13.854;2022-08-23T15:31:39;0.00;;;0.00;;
26359;SDS011;14063;41.426;13.854;2022-08-23T15:34:05;0.00;;;0.00;;
26359;SDS011;14063;41.426;13.854;2022-08-23T15:36:33;0.10;;;0.10;;
26359;SDS011;14063;41.426;13.854;2022-08-23T15:39:01;0.10;;;0.10;;
26359;SDS011;14063;41.426;13.854;2022-08-23T15:41:27;0.00;;;0.00;;
26359;SDS011;14063;41.426;13.854;2022-08-23T15:43:53;0.00;;;0.00;;
26359;SDS011;14063;41.426;13.854;2022-08-23T15:46:21;0.10;;;0.10;;
26359;SDS011;14063;41.426;13.854;2022-08-23T15:48:55;0.03;;;0.03;;
26359;SDS011;14063;41.426;13.854;2022-08-23T15:51:22;0.00;;;0.00;;
26359;SDS011;14063;41.426;13.854;2022-08-23T15:53:48;0.00;;;0.00;;
26359;SDS011;14063;41.426;13.854;2022-08-23T15:56:18;0.00;;;0.00;;
26359;SDS011;14063;41.426;13.854;2022-08-23T15:58:46;0.00;;;0.00;;
26359;SDS011;14063;41.426;13.854;2022-08-23T16:01:12;0.05;;;0.05;;
26359;SDS011;14063;41.426;13.854;2022-08-23T16:03:39;0.00;;;0.00;;
26359;SDS011;14063;41.426;13.854;2022-08-23T16:06:09;0.00;;;0.00;;
26359;SDS011;14063;41.426;13.854;2022-08-23T16:08:36;0.10;;;0.10;;
26359;SDS011;14063;41.426;13.854;2022-08-23T16:11:04;0.00;;;0.00;;
26359;SDS011;14063;41.426;13.854;2022-08-23T16:13:36;0.00;;;0.00;;
26359;SDS011;14063;41.426;13.854;2022-08-23T16:16:06;0.10;;;0.10;;
26359;SDS011;14063;41.426;13.854;2022-08-23T16:18:32;0.05;;;0.05;;
26359;SDS011;14063;41.426;13.854;2022-08-23T16:20:58;0.00;;;0.00;;
26359;SDS011;14063;41.426;13.854;2022-08-23T16:23:24;0.00;;;0.00;;
26359;SDS011;14063;41.426;13.854;2022-08-23T16:25:51;0.10;;;0.10;;
26359;SDS011;14063;41.426;13.854;2022-08-23T16:28:17;0.00;;;0.00;;
26359;SDS011;14063;41.426;13.854;2022-08-23T16:30:43;0.05;;;0.05;;
26359;SDS011;14063;41.426;13.854;2022-08-23T16:33:10;0.00;;;0.00;;
26359;SDS011;14063;41.426;13.854;2022-08-23T16:35:36;0.00;;;0.00;;
26359;SDS011;14063;41.426;13.854;2022-08-23T16:38:02;0.00;;;0.00;;